createdAt,value
2023-12-21T00:00:58.960Z,3.95
2023-12-21T00:03:27.454Z,3.50
2023-12-21T00:05:55.870Z,3.03
2023-12-21T00:08:24.360Z,3.75
2023-12-21T00:10:54.257Z,2.72
2023-12-21T00:13:24.108Z,3.20
2023-12-21T00:15:52.566Z,2.30
2023-12-21T00:18:21.079Z,2.35
2023-12-21T00:20:49.624Z,2.03
2023-12-21T00:23:18.057Z,2.28
2023-12-21T00:25:46.689Z,2.17
2023-12-21T00:28:16.918Z,1.77
2023-12-21T00:30:45.750Z,2.00
2023-12-21T00:33:14.568Z,1.77
2023-12-21T00:35:43.163Z,2.10
2023-12-21T00:38:11.662Z,2.15
2023-12-21T00:40:40.199Z,2.45
2023-12-21T00:43:08.800Z,2.38
2023-12-21T00:45:38.628Z,2.55
2023-12-21T00:48:07.808Z,2.97
2023-12-21T00:50:36.298Z,3.10
2023-12-21T00:53:04.815Z,3.00
2023-12-21T00:55:33.325Z,3.13
2023-12-21T00:58:01.955Z,3.22
2023-12-21T01:00:30.378Z,2.97
2023-12-21T01:03:00.732Z,4.00
2023-12-21T01:05:29.171Z,3.40
2023-12-21T01:07:57.610Z,2.88
2023-12-21T01:10:26.545Z,3.47
2023-12-21T01:12:57.237Z,2.90
2023-12-21T01:15:25.662Z,2.75
2023-12-21T01:17:54.094Z,2.95
2023-12-21T01:20:23.997Z,2.42
2023-12-21T01:22:52.506Z,3.03
2023-12-21T01:25:21.164Z,2.95
2023-12-21T01:27:49.915Z,2.75
2023-12-21T01:30:18.614Z,2.65
2023-12-21T01:32:47.508Z,2.80
2023-12-21T01:35:16.283Z,2.60
2023-12-21T01:37:46.547Z,2.97
2023-12-21T01:40:15.963Z,2.50
2023-12-21T01:42:45.044Z,3.17
2023-12-21T01:45:14.454Z,3.55
2023-12-21T01:47:43.159Z,3.05
2023-12-21T01:50:12.927Z,2.95
2023-12-21T01:52:42.222Z,2.83
2023-12-21T01:55:12.347Z,2.42
2023-12-21T01:57:40.908Z,2.42
2023-12-21T02:00:10.385Z,2.40
2023-12-21T02:02:39.062Z,2.72
2023-12-21T02:05:08.231Z,2.50
2023-12-21T02:07:36.911Z,2.22
2023-12-21T02:10:06.411Z,2.20
2023-12-21T02:12:36.540Z,2.08
2023-12-21T02:15:05.808Z,1.98
2023-12-21T02:17:35.999Z,1.85
2023-12-21T02:20:24.842Z,2.05
2023-12-21T02:22:55.215Z,1.67
2023-12-21T02:25:25.183Z,2.00
2023-12-21T02:27:53.829Z,1.88
2023-12-21T02:30:22.330Z,1.73
2023-12-21T02:32:51.014Z,1.70
2023-12-21T02:35:20.682Z,1.60
2023-12-21T02:37:49.126Z,1.70
2023-12-21T02:40:17.657Z,1.77
2023-12-21T02:42:49.595Z,1.73
2023-12-21T02:45:18.455Z,1.83
2023-12-21T02:47:47.417Z,1.95
2023-12-21T02:50:16.280Z,2.15
2023-12-21T02:52:45.103Z,1.83
2023-12-21T02:55:14.252Z,2.25
2023-12-21T02:57:43.037Z,2.10
2023-12-21T03:00:14.268Z,2.40
2023-12-21T03:02:42.955Z,2.17
2023-12-21T03:05:12.202Z,2.20
2023-12-21T03:07:40.771Z,2.13
2023-12-21T03:10:10.888Z,2.17
2023-12-21T03:12:39.579Z,2.30
2023-12-21T03:15:09.057Z,2.00
2023-12-21T03:17:38.894Z,2.53
2023-12-21T03:20:09.095Z,2.42
2023-12-21T03:22:37.830Z,2.38
2023-12-21T03:25:07.165Z,2.88
2023-12-21T03:27:36.047Z,2.40
2023-12-21T03:30:04.648Z,2.80
2023-12-21T03:32:34.053Z,2.60
2023-12-21T03:35:04.437Z,2.83
2023-12-21T03:37:34.106Z,2.50
2023-12-21T03:40:02.636Z,3.10
2023-12-21T03:42:32.489Z,3.25
2023-12-21T03:45:00.884Z,2.78
2023-12-21T03:47:29.293Z,2.50
2023-12-21T03:49:58.264Z,3.22
2023-12-21T03:52:28.959Z,2.28
2023-12-21T03:54:57.425Z,2.90
2023-12-21T03:57:25.856Z,3.13
2023-12-21T03:59:54.429Z,2.30
2023-12-21T04:02:22.904Z,2.95
2023-12-21T04:04:51.383Z,2.25
2023-12-21T04:07:19.855Z,2.15
2023-12-21T04:09:49.822Z,2.13
2023-12-21T04:12:18.516Z,2.50
2023-12-21T04:14:46.900Z,2.83
2023-12-21T04:17:15.334Z,2.10
2023-12-21T04:19:43.890Z,1.92
2023-12-21T04:22:12.342Z,2.10
2023-12-21T04:24:40.783Z,2.72
2023-12-21T04:27:10.587Z,2.03
2023-12-21T04:29:39.999Z,1.63
2023-12-21T04:32:08.996Z,1.65
2023-12-21T04:34:37.940Z,2.05
2023-12-21T04:37:06.505Z,1.50
2023-12-21T04:39:34.906Z,1.40
2023-12-21T04:42:03.453Z,1.10
2023-12-21T04:44:33.320Z,1.40
2023-12-21T04:47:01.698Z,1.40
2023-12-21T04:49:30.707Z,1.58
2023-12-21T04:51:59.169Z,3.95
2023-12-21T04:54:27.582Z,3.05
2023-12-21T04:56:55.972Z,1.38
2023-12-21T04:59:24.909Z,1.63
2023-12-21T05:01:57.556Z,1.55
2023-12-21T05:04:26.853Z,1.50
2023-12-21T05:06:55.372Z,1.90
2023-12-21T05:09:24.030Z,1.85
2023-12-21T05:11:52.555Z,1.58
2023-12-21T05:14:21.155Z,1.35
2023-12-21T05:16:49.573Z,1.85
2023-12-21T05:19:19.581Z,2.55
2023-12-21T05:21:48.186Z,1.40
2023-12-21T05:24:16.774Z,1.38
2023-12-21T05:26:45.698Z,1.65
2023-12-21T05:29:14.174Z,1.40
2023-12-21T05:31:43.451Z,1.33
2023-12-21T05:34:12.200Z,1.10
2023-12-21T05:36:42.381Z,1.02
2023-12-21T05:39:17.892Z,1.45
2023-12-21T05:41:48.239Z,1.05
2023-12-21T05:44:16.802Z,0.95
2023-12-21T05:46:45.674Z,1.25
2023-12-21T05:49:14.206Z,1.20
2023-12-21T05:51:44.086Z,1.00
2023-12-21T05:54:12.567Z,1.05
2023-12-21T05:56:41.009Z,1.42
2023-12-21T05:59:10.930Z,1.00
2023-12-21T06:01:40.038Z,1.10
2023-12-21T06:04:08.706Z,1.13
2023-12-21T06:06:37.666Z,1.20
2023-12-21T06:09:08.764Z,1.23
2023-12-21T06:11:37.272Z,1.00
2023-12-21T06:14:05.670Z,1.10
2023-12-21T06:16:35.103Z,0.85
2023-12-21T06:19:04.864Z,1.00
2023-12-21T06:21:33.361Z,0.90
2023-12-21T06:24:01.718Z,1.10
2023-12-21T06:26:31.519Z,1.00
2023-12-21T06:29:00.232Z,1.48
2023-12-21T06:31:28.706Z,1.50
2023-12-21T06:33:57.911Z,1.08
2023-12-21T06:36:26.377Z,1.77
2023-12-21T06:38:54.858Z,1.10
2023-12-21T06:41:23.371Z,1.20
2023-12-21T06:43:53.165Z,3.10
2023-12-21T06:46:22.599Z,1.45
2023-12-21T06:48:51.288Z,2.20
2023-12-21T06:51:19.724Z,1.23
2023-12-21T06:53:48.495Z,1.35
2023-12-21T06:56:28.957Z,1.73
2023-12-21T06:59:04.793Z,2.30
2023-12-21T07:01:33.669Z,1.85
2023-12-21T07:04:02.431Z,1.45
2023-12-21T07:06:31.015Z,1.73
2023-12-21T07:09:00.117Z,1.15
2023-12-21T07:11:28.794Z,1.30
2023-12-21T07:13:57.299Z,1.10
2023-12-21T07:16:27.401Z,1.13
2023-12-21T07:18:56.029Z,1.42
2023-12-21T07:21:24.614Z,1.45
2023-12-21T07:23:53.047Z,1.20
2023-12-21T07:26:21.464Z,1.13
2023-12-21T07:28:50.371Z,1.10
2023-12-21T07:31:18.825Z,1.00
2023-12-21T07:33:49.249Z,1.17
2023-12-21T07:36:17.981Z,1.40
2023-12-21T07:38:46.886Z,1.00
2023-12-21T07:41:15.728Z,1.65
2023-12-21T07:43:46.131Z,1.10
2023-12-21T07:46:15.230Z,1.25
2023-12-21T07:48:44.013Z,1.20
2023-12-21T07:51:13.896Z,1.50
2023-12-21T07:53:42.582Z,1.58
2023-12-21T07:56:11.157Z,1.15
2023-12-21T07:58:39.688Z,1.23
2023-12-21T08:01:08.723Z,1.25
2023-12-21T08:03:37.525Z,1.05
2023-12-21T08:06:06.744Z,1.13
2023-12-21T08:08:41.481Z,1.10
2023-12-21T08:11:13.900Z,1.20
2023-12-21T08:13:42.269Z,1.08
2023-12-21T08:16:10.894Z,1.25
2023-12-21T08:18:39.372Z,1.20
2023-12-21T08:21:07.882Z,1.30
2023-12-21T08:23:37.735Z,1.30
2023-12-21T08:26:07.041Z,1.40
2023-12-21T08:28:35.701Z,1.63
2023-12-21T08:31:04.844Z,1.35
2023-12-21T08:33:33.755Z,1.85
2023-12-21T08:36:02.283Z,1.70
2023-12-21T08:38:30.755Z,1.40
2023-12-21T08:41:03.939Z,1.50
2023-12-21T08:43:33.848Z,1.63
2023-12-21T08:46:02.560Z,1.33
2023-12-21T08:48:31.200Z,1.75
2023-12-21T08:50:59.626Z,1.00
2023-12-21T08:53:28.108Z,1.45
2023-12-21T08:55:56.605Z,1.30
2023-12-21T08:58:26.444Z,0.85
2023-12-21T09:00:55.751Z,1.50
2023-12-21T09:03:24.342Z,1.10
2023-12-21T09:05:52.885Z,1.00
2023-12-21T09:08:21.406Z,1.50
2023-12-21T09:10:50.096Z,1.27
2023-12-21T09:13:18.822Z,1.40
2023-12-21T09:15:48.787Z,1.13
2023-12-21T09:18:17.376Z,0.93
2023-12-21T09:20:46.042Z,0.93
2023-12-21T09:23:15.162Z,0.90
2023-12-21T09:25:43.977Z,1.10
2023-12-21T09:28:18.751Z,1.05
2023-12-21T09:30:48.805Z,0.93
2023-12-21T09:33:19.698Z,1.52
2023-12-21T09:35:49.588Z,1.38
2023-12-21T09:38:18.424Z,1.20
2023-12-21T09:40:47.410Z,1.00
2023-12-21T09:43:20.246Z,1.13
2023-12-21T09:45:52.279Z,1.02
2023-12-21T09:48:22.316Z,1.50
2023-12-21T09:50:51.715Z,1.30
2023-12-21T09:53:23.787Z,1.02
2023-12-21T09:55:53.662Z,1.60
2023-12-21T09:58:22.332Z,1.40
2023-12-21T10:00:52.297Z,1.10
2023-12-21T10:03:20.835Z,1.20
2023-12-21T10:05:49.951Z,1.10
2023-12-21T10:08:19.512Z,0.80
2023-12-21T10:10:48.726Z,1.30
2023-12-21T10:13:17.639Z,1.20
2023-12-21T10:15:48.168Z,1.27
2023-12-21T10:18:18.433Z,1.55
2023-12-21T10:20:47.335Z,1.40
2023-12-21T10:23:16.390Z,1.60
2023-12-21T10:25:47.622Z,1.27
2023-12-21T10:28:16.367Z,1.10
2023-12-21T10:30:44.807Z,1.20
2023-12-21T10:33:13.825Z,1.40
2023-12-21T10:35:43.882Z,1.27
2023-12-21T10:38:12.442Z,1.30
2023-12-21T10:40:41.131Z,1.20
2023-12-21T10:43:09.961Z,1.63
2023-12-21T10:45:38.605Z,1.60
2023-12-21T10:48:10.158Z,1.55
2023-12-21T10:50:39.336Z,1.10
2023-12-21T10:53:11.653Z,1.13
2023-12-21T10:55:40.294Z,1.45
2023-12-21T10:58:09.067Z,1.33
2023-12-21T11:00:37.921Z,1.33
2023-12-21T11:03:10.476Z,1.58
2023-12-21T11:05:41.682Z,1.33
2023-12-21T11:08:14.574Z,1.52
2023-12-21T11:10:45.435Z,1.48
2023-12-21T11:13:14.507Z,1.70
2023-12-21T11:15:43.235Z,1.90
2023-12-21T11:18:14.146Z,1.95
2023-12-21T11:20:48.413Z,1.90
2023-12-21T11:23:21.121Z,2.15
2023-12-21T11:25:57.582Z,2.15
2023-12-21T11:28:29.059Z,2.60
2023-12-21T11:30:57.719Z,2.15
2023-12-21T11:33:33.048Z,3.33
2023-12-21T11:36:03.972Z,5.97
2023-12-21T11:38:52.537Z,3.40
2023-12-21T11:41:26.159Z,2.75
2023-12-21T11:43:58.921Z,2.85
2023-12-21T11:46:27.721Z,2.85
2023-12-21T11:48:56.370Z,2.47
2023-12-21T11:51:24.792Z,3.20
2023-12-21T11:53:54.795Z,2.60
2023-12-21T11:56:23.375Z,2.50
2023-12-21T11:58:53.329Z,3.50
2023-12-21T12:01:27.321Z,3.58
2023-12-21T12:03:56.204Z,3.45
2023-12-21T12:06:27.153Z,3.45
2023-12-21T12:08:57.703Z,3.42
2023-12-21T12:11:27.815Z,5.30
2023-12-21T12:13:59.705Z,4.25
2023-12-21T12:16:29.155Z,3.95
2023-12-21T12:18:57.890Z,3.75
2023-12-21T12:21:27.354Z,3.10
2023-12-21T12:23:57.288Z,2.55
2023-12-21T12:26:25.989Z,2.80
2023-12-21T12:28:54.959Z,3.00
2023-12-21T12:31:23.618Z,2.70
2023-12-21T12:33:52.331Z,2.45
2023-12-21T12:36:21.310Z,2.35
2023-12-21T12:38:51.032Z,2.65
2023-12-21T12:41:22.418Z,3.08
2023-12-21T12:43:51.333Z,3.00
2023-12-21T12:46:22.051Z,2.70
2023-12-21T12:48:50.974Z,3.40
2023-12-21T12:51:20.834Z,3.20
2023-12-21T12:53:49.538Z,2.63
2023-12-21T12:56:18.142Z,2.92
2023-12-21T12:58:56.028Z,2.88
2023-12-21T13:01:29.604Z,4.38
2023-12-21T13:04:00.129Z,2.90
2023-12-21T13:06:30.216Z,3.28
2023-12-21T13:08:59.019Z,3.67
2023-12-21T13:11:27.649Z,2.80
2023-12-21T13:13:57.725Z,3.20
2023-12-21T13:16:26.383Z,2.85
2023-12-21T13:18:55.202Z,2.30
2023-12-21T13:21:23.684Z,2.78
2023-12-21T13:23:52.447Z,2.70
2023-12-21T13:26:21.147Z,2.85
2023-12-21T13:28:50.208Z,2.53
2023-12-21T13:31:20.564Z,2.90
2023-12-21T13:33:50.159Z,2.85
2023-12-21T13:36:18.898Z,4.95
2023-12-21T13:38:48.760Z,3.15
2023-12-21T13:41:17.316Z,3.83
2023-12-21T13:43:47.607Z,3.80
2023-12-21T13:46:19.069Z,2.78
2023-12-21T13:48:49.139Z,3.30
2023-12-21T13:51:17.902Z,3.03
2023-12-21T13:53:46.922Z,3.53
2023-12-21T13:56:15.698Z,3.17
2023-12-21T13:58:44.203Z,4.00
2023-12-21T14:01:12.761Z,3.30
2023-12-21T14:03:41.456Z,2.70
2023-12-21T14:06:12.753Z,4.75
2023-12-21T14:08:41.291Z,3.38
2023-12-21T14:11:11.526Z,3.65
2023-12-21T14:13:40.335Z,3.40
2023-12-21T14:16:08.971Z,3.10
2023-12-21T14:18:37.720Z,3.50
2023-12-21T14:21:06.676Z,2.97
2023-12-21T14:23:36.511Z,3.42
2023-12-21T14:26:05.213Z,2.75
2023-12-21T14:28:39.565Z,2.97
2023-12-21T14:31:15.387Z,3.60
2023-12-21T14:33:44.064Z,2.50
2023-12-21T14:36:12.552Z,2.60
2023-12-21T14:38:42.388Z,2.60
2023-12-21T14:41:12.277Z,2.60
2023-12-21T14:43:40.935Z,3.00
2023-12-21T14:46:09.582Z,2.85
2023-12-21T14:48:38.329Z,2.63
2023-12-21T14:51:07.469Z,3.63
2023-12-21T14:53:36.419Z,2.80
2023-12-21T14:56:06.551Z,2.60
2023-12-21T14:58:34.987Z,2.35
2023-12-21T15:01:04.225Z,2.58
2023-12-21T15:03:32.811Z,2.75
2023-12-21T15:06:01.956Z,3.10
2023-12-21T15:08:31.046Z,3.17
2023-12-21T15:10:59.773Z,2.88
2023-12-21T15:13:30.413Z,3.10
2023-12-21T15:15:59.224Z,2.72
2023-12-21T15:18:27.783Z,2.63
2023-12-21T15:20:56.372Z,3.03
2023-12-21T15:23:24.853Z,2.50
2023-12-21T15:25:53.435Z,3.00
2023-12-21T15:28:22.071Z,3.55
2023-12-21T15:30:51.903Z,3.85
2023-12-21T15:33:20.754Z,2.70
2023-12-21T15:35:49.765Z,2.67
2023-12-21T15:38:18.716Z,2.97
2023-12-21T15:40:47.316Z,3.85
2023-12-21T15:43:15.978Z,2.47
2023-12-21T15:45:45.254Z,2.70
2023-12-21T15:48:15.515Z,2.92
2023-12-21T15:50:47.679Z,3.05
2023-12-21T15:53:16.173Z,4.55
2023-12-21T15:55:44.707Z,4.40
2023-12-21T15:58:13.226Z,4.18
2023-12-21T16:00:41.684Z,3.80
2023-12-21T16:03:10.144Z,3.17
2023-12-21T16:05:39.995Z,3.47
2023-12-21T16:08:10.210Z,3.40
2023-12-21T16:10:39.261Z,3.33
2023-12-21T16:13:07.958Z,3.50
2023-12-21T16:15:36.371Z,3.28
2023-12-21T16:18:05.994Z,3.42
2023-12-21T16:20:34.567Z,3.00
2023-12-21T16:23:05.300Z,2.50
2023-12-21T16:25:34.126Z,2.95
2023-12-21T16:28:03.300Z,3.50
2023-12-21T16:30:32.681Z,3.22
2023-12-21T16:33:01.262Z,3.42
2023-12-21T16:35:29.928Z,3.33
2023-12-21T16:37:58.728Z,3.53
2023-12-21T16:40:28.699Z,3.50
2023-12-21T16:42:57.303Z,4.03
2023-12-21T16:45:27.346Z,4.88
2023-12-21T16:47:58.401Z,4.07
2023-12-21T16:50:29.612Z,3.30
2023-12-21T16:52:58.334Z,2.85
2023-12-21T16:55:28.303Z,3.22
2023-12-21T16:57:57.700Z,3.30
2023-12-21T17:00:26.364Z,3.25
2023-12-21T17:02:54.963Z,2.95
2023-12-21T17:05:23.619Z,3.58
2023-12-21T17:07:52.307Z,3.30
2023-12-21T17:10:20.830Z,4.13
2023-12-21T17:12:50.972Z,5.70
2023-12-21T17:15:19.961Z,3.13
2023-12-21T17:17:49.070Z,3.10
2023-12-21T17:20:19.350Z,3.38
2023-12-21T17:22:47.790Z,2.88
2023-12-21T17:25:16.654Z,3.22
2023-12-21T17:27:46.586Z,2.85
2023-12-21T17:30:19.105Z,3.20
2023-12-21T17:32:47.859Z,2.80
2023-12-21T17:35:16.560Z,3.25
2023-12-21T17:37:46.609Z,3.20
2023-12-21T17:40:18.077Z,3.22
2023-12-21T17:42:47.250Z,3.40
2023-12-21T17:45:18.575Z,4.03
2023-12-21T17:47:47.521Z,3.33
2023-12-21T17:50:16.236Z,3.70
2023-12-21T17:52:45.189Z,3.35
2023-12-21T17:55:14.643Z,3.28
2023-12-21T17:57:43.146Z,3.13
2023-12-21T18:00:13.068Z,3.30
2023-12-21T18:02:43.892Z,3.28
2023-12-21T18:05:12.400Z,3.60
2023-12-21T18:07:40.904Z,3.75
2023-12-21T18:10:10.357Z,3.85
2023-12-21T18:12:39.030Z,3.63
2023-12-21T18:15:10.346Z,3.85
2023-12-21T18:17:39.062Z,3.60
2023-12-21T18:20:10.311Z,3.90
2023-12-21T18:22:38.966Z,4.60
2023-12-21T18:25:07.963Z,5.25
2023-12-21T18:27:36.802Z,5.38
2023-12-21T18:30:06.876Z,5.28
2023-12-21T18:32:37.309Z,3.97
2023-12-21T18:35:08.607Z,4.10
2023-12-21T18:37:37.694Z,4.30
2023-12-21T18:40:07.270Z,3.63
2023-12-21T18:42:37.081Z,3.55
2023-12-21T18:45:06.300Z,4.22
2023-12-21T18:47:34.922Z,3.90
2023-12-21T18:50:12.045Z,4.13
2023-12-21T18:52:43.632Z,3.83
2023-12-21T18:55:12.305Z,3.80
2023-12-21T18:57:50.003Z,4.10
2023-12-21T19:00:20.268Z,4.45
2023-12-21T19:02:51.803Z,4.07
2023-12-21T19:05:48.314Z,4.32
2023-12-21T19:08:19.810Z,3.90
2023-12-21T19:10:51.938Z,4.60
2023-12-21T19:13:20.760Z,4.10
2023-12-21T19:15:49.333Z,4.55
2023-12-21T19:18:20.790Z,4.38
2023-12-21T19:20:50.985Z,4.53
2023-12-21T19:23:24.246Z,3.70
2023-12-21T19:25:59.102Z,4.25
2023-12-21T19:28:29.879Z,4.07
2023-12-21T19:30:58.795Z,4.38
2023-12-21T19:33:27.313Z,4.60
2023-12-21T19:35:58.708Z,4.63
2023-12-21T19:38:27.507Z,4.68
2023-12-21T19:40:56.037Z,4.30
2023-12-21T19:43:25.089Z,4.80
2023-12-21T19:46:29.009Z,4.20
2023-12-21T19:49:05.958Z,4.40
2023-12-21T19:51:35.972Z,4.50
2023-12-21T19:54:11.234Z,4.68
2023-12-21T19:56:46.114Z,4.75
2023-12-21T19:59:20.525Z,4.95
2023-12-21T20:01:55.436Z,5.10
2023-12-21T20:06:55.276Z,4.63
2023-12-21T20:09:23.813Z,4.85
2023-12-21T20:11:52.867Z,4.43
2023-12-21T20:14:21.800Z,4.88
2023-12-21T20:16:50.623Z,4.75
2023-12-21T20:19:21.725Z,4.13
2023-12-21T20:21:51.859Z,4.63
2023-12-21T20:24:21.669Z,4.18
2023-12-21T20:26:50.213Z,5.78
2023-12-21T20:29:18.606Z,6.82
2023-12-21T20:31:47.120Z,4.57
2023-12-21T20:34:15.920Z,4.40
2023-12-21T20:36:44.395Z,4.00
2023-12-21T20:39:12.791Z,4.95
2023-12-21T20:41:42.604Z,4.47
2023-12-21T20:44:11.244Z,4.80
2023-12-21T20:46:40.050Z,4.65
2023-12-21T20:49:08.528Z,4.20
2023-12-21T20:51:36.940Z,4.50
2023-12-21T20:54:05.662Z,4.10
2023-12-21T20:56:34.499Z,4.65
2023-12-21T20:59:04.485Z,4.65
2023-12-21T21:01:32.953Z,4.18
2023-12-21T21:04:01.507Z,4.10
2023-12-21T21:06:30.004Z,4.53
2023-12-21T21:08:58.608Z,4.13
2023-12-21T21:11:29.406Z,4.25
2023-12-21T21:13:57.909Z,4.68
2023-12-21T21:16:27.974Z,4.13
2023-12-21T21:18:56.417Z,4.55
2023-12-21T21:21:25.678Z,3.75
2023-12-21T21:23:54.141Z,4.80
2023-12-21T21:26:22.607Z,4.40
2023-12-21T21:28:51.097Z,4.47
2023-12-21T21:31:19.674Z,4.13
2023-12-21T21:33:51.602Z,4.38
2023-12-21T21:36:20.570Z,4.63
2023-12-21T21:38:49.200Z,4.63
2023-12-21T21:41:18.109Z,5.43
2023-12-21T21:43:47.024Z,4.72
2023-12-21T21:46:15.461Z,4.43
2023-12-21T21:48:44.601Z,4.35
2023-12-21T21:51:17.356Z,5.13
2023-12-21T21:53:46.781Z,4.38
2023-12-21T21:56:19.717Z,4.60
2023-12-21T21:58:48.840Z,4.88
2023-12-21T22:01:17.754Z,4.55
2023-12-21T22:03:46.959Z,4.70
2023-12-21T22:06:17.074Z,4.55
2023-12-21T22:08:45.572Z,4.80
2023-12-21T22:11:14.284Z,4.35
2023-12-21T22:13:43.211Z,4.85
2023-12-21T22:16:11.748Z,4.75
2023-12-21T22:18:40.298Z,5.10
2023-12-21T22:21:09.828Z,4.40
2023-12-21T22:23:40.454Z,4.50
2023-12-21T22:26:09.249Z,4.60
2023-12-21T22:28:37.663Z,4.72
2023-12-21T22:31:06.490Z,4.60
2023-12-21T22:33:35.089Z,4.53
2023-12-21T22:36:03.821Z,4.50
2023-12-21T22:38:33.254Z,4.90
2023-12-21T22:41:03.307Z,4.93
2023-12-21T22:43:39.622Z,4.57
2023-12-21T22:46:11.603Z,4.60
2023-12-21T22:48:40.333Z,4.80
2023-12-21T22:51:08.853Z,5.07
2023-12-21T22:53:37.240Z,4.70
2023-12-21T22:56:07.547Z,5.18
2023-12-21T22:58:36.054Z,5.35
2023-12-21T23:01:04.603Z,5.40
2023-12-21T23:03:33.061Z,5.55
2023-12-21T23:06:01.623Z,5.50
2023-12-21T23:08:30.264Z,5.18
2023-12-21T23:10:58.809Z,5.60
2023-12-21T23:13:29.785Z,5.57
2023-12-21T23:15:58.243Z,5.65
2023-12-21T23:18:26.826Z,5.55
2023-12-21T23:20:55.316Z,5.70
2023-12-21T23:23:24.348Z,6.25
2023-12-21T23:25:52.889Z,6.15
2023-12-21T23:28:21.430Z,6.22
2023-12-21T23:30:53.231Z,6.43
2023-12-21T23:33:23.044Z,6.53
2023-12-21T23:35:51.507Z,5.82
2023-12-21T23:38:19.975Z,6.10
2023-12-21T23:40:48.513Z,5.53
2023-12-21T23:43:17.038Z,5.18
2023-12-21T23:45:45.460Z,5.18
2023-12-21T23:48:15.471Z,5.13
2023-12-21T23:50:43.982Z,4.68
2023-12-21T23:53:13.484Z,4.38
2023-12-21T23:55:41.931Z,4.60
2023-12-21T23:58:10.384Z,4.43
